Time;durP1;ratioP1;P1;durP2;ratioP2;P2;SDS_P1;SDS_P2;PMS_P1;PMS_P2;Temp;Humidity;BMP_temperature;BMP_pressure;BME280_temperature;BME280_humidity;BME280_pressure;Samples;Min_cycle;Max_cycle;Signal;HPM_P1;HPM_P2
2022/07/04 00:02:10;;;;;;;12.63;11.32;;;;;;;;;;5038474;28;20032;-72
2022/07/04 00:04:35;;;;;;;13.88;12.55;;;;;;;;;;5038883;28;20020;-71
2022/07/04 00:07:00;;;;;;;13.35;12.05;;;;;;;;;;5022492;28;20021;-71
2022/07/04 00:09:26;;;;;;;13.90;12.70;;;;;;;;;;5028143;28;20025;-71
2022/07/04 00:11:51;;;;;;;14.70;12.35;;;;;;;;;;5026004;28;20037;-70
2022/07/04 00:14:16;;;;;;;14.23;12.77;;;;;;;;;;5025120;28;20036;-69
2022/07/04 00:16:42;;;;;;;13.63;12.27;;;;;;;;;;5041921;28;20029;-70
2022/07/04 00:19:07;;;;;;;14.18;12.80;;;;;;;;;;5042243;28;20023;-69
2022/07/04 00:21:33;;;;;;;15.27;13.68;;;;;;;;;;5033936;28;20032;-70
2022/07/04 00:23:58;;;;;;;13.77;12.48;;;;;;;;;;5029843;28;20035;-69
2022/07/04 00:26:24;;;;;;;13.38;11.98;;;;;;;;;;5040985;28;20025;-71
2022/07/04 00:28:49;;;;;;;12.95;11.85;;;;;;;;;;5027433;28;20021;-71
2022/07/04 00:31:14;;;;;;;15.45;13.43;;;;;;;;;;5041932;28;20130;-72
2022/07/04 00:33:40;;;;;;;14.90;13.43;;;;;;;;;;5043140;28;20033;-70
2022/07/04 00:36:05;;;;;;;13.93;12.52;;;;;;;;;;5032874;28;20021;-70
2022/07/04 00:38:31;;;;;;;15.45;13.02;;;;;;;;;;5035234;28;20021;-69
2022/07/04 00:40:56;;;;;;;13.80;12.60;;;;;;;;;;5042608;28;20029;-69
2022/07/04 00:43:23;;;;;;;12.50;11.25;;;;;;;;;;5026834;28;20429;-71
2022/07/04 00:45:48;;;;;;;13.07;11.90;;;;;;;;;;5040896;28;20097;-71
2022/07/04 00:48:15;;;;;;;13.90;12.60;;;;;;;;;;5042616;28;20033;-72
2022/07/04 00:50:41;;;;;;;13.48;12.07;;;;;;;;;;5037285;28;20032;-69
2022/07/04 00:53:06;;;;;;;16.42;13.40;;;;;;;;;;5034222;28;20040;-69
2022/07/04 00:55:33;;;;;;;13.68;12.13;;;;;;;;;;5041360;28;20115;-71
2022/07/04 00:57:58;;;;;;;17.98;13.88;;;;;;;;;;5041393;28;20352;-70
2022/07/04 01:00:23;;;;;;;14.77;12.40;;;;;;;;;;5039049;28;20021;-72
2022/07/04 01:02:49;;;;;;;15.10;13.70;;;;;;;;;;5025119;28;20115;-71
2022/07/04 01:05:15;;;;;;;16.05;13.73;;;;;;;;;;5025798;28;20024;-72
2022/07/04 01:07:40;;;;;;;14.82;13.05;;;;;;;;;;5031009;28;20025;-71
2022/07/04 01:10:06;;;;;;;16.73;12.85;;;;;;;;;;5041950;28;20028;-69
2022/07/04 01:12:31;;;;;;;15.13;13.73;;;;;;;;;;5041180;28;20025;-70
2022/07/04 01:14:57;;;;;;;18.27;13.63;;;;;;;;;;5041058;28;20112;-70
2022/07/04 01:17:22;;;;;;;16.38;14.65;;;;;;;;;;5040553;28;20321;-70
2022/07/04 01:19:47;;;;;;;14.35;12.85;;;;;;;;;;5041591;28;20100;-72
2022/07/04 01:22:13;;;;;;;16.63;14.93;;;;;;;;;;5021707;28;20020;-70
2022/07/04 01:24:38;;;;;;;16.45;14.88;;;;;;;;;;5040962;28;20031;-70
2022/07/04 01:27:04;;;;;;;16.52;14.25;;;;;;;;;;5041733;28;20024;-70
2022/07/04 01:29:30;;;;;;;15.35;13.65;;;;;;;;;;5040949;28;20447;-70
2022/07/04 01:31:56;;;;;;;16.55;14.98;;;;;;;;;;5040766;28;20515;-70
2022/07/04 01:34:21;;;;;;;17.52;14.18;;;;;;;;;;5041011;28;20108;-70
2022/07/04 01:36:46;;;;;;;16.02;14.55;;;;;;;;;;5032229;28;20463;-73
2022/07/04 01:39:12;;;;;;;15.02;13.63;;;;;;;;;;5032298;28;20021;-70
2022/07/04 01:41:37;;;;;;;16.85;13.98;;;;;;;;;;5023557;28;20020;-71
2022/07/04 01:44:02;;;;;;;17.35;12.98;;;;;;;;;;5036960;28;20068;-70
2022/07/04 01:46:28;;;;;;;15.35;13.95;;;;;;;;;;5040684;28;20049;-71
2022/07/04 01:48:53;;;;;;;15.10;13.80;;;;;;;;;;5040385;28;20068;-70
2022/07/04 01:51:19;;;;;;;15.82;14.32;;;;;;;;;;5034895;28;20037;-70
2022/07/04 01:53:44;;;;;;;17.13;15.52;;;;;;;;;;5034725;28;20029;-70
2022/07/04 01:56:09;;;;;;;15.70;14.30;;;;;;;;;;5040275;28;20029;-70
2022/07/04 01:58:34;;;;;;;15.05;13.52;;;;;;;;;;5041384;28;20045;-68
2022/07/04 02:03:45;;;;;;;18.92;15.00;;;;;;;;;;5034390;28;20107;-69
2022/07/04 02:06:10;;;;;;;18.40;14.45;;;;;;;;;;5040433;28;20029;-70
2022/07/04 02:11:20;;;;;;;15.80;14.13;;;;;;;;;;5036159;28;20031;-70
2022/07/04 02:13:45;;;;;;;15.77;14.15;;;;;;;;;;5025475;28;20115;-70
2022/07/04 02:16:10;;;;;;;14.75;13.27;;;;;;;;;;5040480;28;20028;-70
2022/07/04 02:18:36;;;;;;;15.10;13.60;;;;;;;;;;5024818;28;20021;-70
2022/07/04 02:21:01;;;;;;;17.40;13.77;;;;;;;;;;5038402;28;20017;-70
2022/07/04 02:23:27;;;;;;;14.73;13.23;;;;;;;;;;5026474;28;20051;-71
2022/07/04 02:25:52;;;;;;;16.17;14.68;;;;;;;;;;5036711;28;20440;-68
2022/07/04 02:28:18;;;;;;;15.32;13.93;;;;;;;;;;5029747;28;20108;-68
2022/07/04 02:30:43;;;;;;;17.15;14.18;;;;;;;;;;5039793;28;21264;-69
2022/07/04 02:33:09;;;;;;;18.00;13.52;;;;;;;;;;5039720;28;20329;-69
2022/07/04 02:35:34;;;;;;;16.33;14.73;;;;;;;;;;5039522;28;20025;-72
2022/07/04 02:37:59;;;;;;;19.33;15.23;;;;;;;;;;5040236;28;20063;-70
2022/07/04 02:40:25;;;;;;;15.85;14.38;;;;;;;;;;5039658;28;20104;-70
2022/07/04 02:42:50;;;;;;;16.73;15.02;;;;;;;;;;5034503;28;20072;-69
2022/07/04 02:45:15;;;;;;;16.15;14.70;;;;;;;;;;5026747;28;20126;-70
2022/07/04 02:47:41;;;;;;;17.20;14.70;;;;;;;;;;5028788;28;20068;-70
2022/07/04 02:50:06;;;;;;;15.38;13.90;;;;;;;;;;5026651;28;20107;-71
2022/07/04 02:52:32;;;;;;;16.77;15.02;;;;;;;;;;5029452;28;20060;-71
2022/07/04 02:54:57;;;;;;;16.38;14.68;;;;;;;;;;5039954;28;20470;-70
2022/07/04 02:57:23;;;;;;;16.70;15.00;;;;;;;;;;5040278;28;20122;-69
2022/07/04 02:59:48;;;;;;;16.35;14.20;;;;;;;;;;5039616;28;20098;-70
2022/07/04 03:02:14;;;;;;;16.20;14.70;;;;;;;;;;5039724;28;20028;-69
2022/07/04 03:04:39;;;;;;;14.98;13.60;;;;;;;;;;5040473;28;20013;-69
2022/07/04 03:07:06;;;;;;;14.57;13.27;;;;;;;;;;5040011;28;20056;-70
2022/07/04 03:09:31;;;;;;;17.73;15.32;;;;;;;;;;5032063;28;20024;-71
2022/07/04 03:11:57;;;;;;;17.05;14.25;;;;;;;;;;5035728;28;20462;-70
2022/07/04 03:14:22;;;;;;;17.02;15.02;;;;;;;;;;5039408;28;20344;-71
2022/07/04 03:16:47;;;;;;;16.00;14.40;;;;;;;;;;5028960;28;20108;-69
2022/07/04 03:19:13;;;;;;;14.48;13.15;;;;;;;;;;5039317;28;20086;-70
2022/07/04 03:21:38;;;;;;;17.27;15.65;;;;;;;;;;5039162;28;20024;-69
2022/07/04 03:24:04;;;;;;;15.63;14.05;;;;;;;;;;5039312;28;20037;-69
2022/07/04 03:26:30;;;;;;;16.85;14.02;;;;;;;;;;5039192;28;20128;-70
2022/07/04 03:28:56;;;;;;;14.90;13.40;;;;;;;;;;5027290;28;20029;-70
2022/07/04 03:31:22;;;;;;;16.48;14.98;;;;;;;;;;5037914;28;20372;-69
2022/07/04 03:33:47;;;;;;;16.02;13.82;;;;;;;;;;5028282;28;20045;-69
2022/07/04 03:36:12;;;;;;;16.88;15.32;;;;;;;;;;5038711;28;20029;-67
2022/07/04 03:38:38;;;;;;;14.70;13.20;;;;;;;;;;5039155;28;20083;-70
2022/07/04 03:41:03;;;;;;;15.32;13.88;;;;;;;;;;5040336;28;20028;-69
2022/07/04 03:43:28;;;;;;;16.80;15.10;;;;;;;;;;5043182;28;20029;-69
2022/07/04 03:45:54;;;;;;;14.80;13.00;;;;;;;;;;5042377;28;20040;-69
2022/07/04 03:48:20;;;;;;;15.48;13.93;;;;;;;;;;5042082;28;20029;-69
2022/07/04 03:50:45;;;;;;;16.15;14.60;;;;;;;;;;5042572;28;20074;-69
2022/07/04 03:53:12;;;;;;;16.67;14.77;;;;;;;;;;5030028;28;20135;-68
2022/07/04 03:55:37;;;;;;;16.25;14.55;;;;;;;;;;5032346;28;20055;-68
2022/07/04 03:58:04;;;;;;;16.45;14.18;;;;;;;;;;5041106;28;20060;-69
2022/07/04 04:00:29;;;;;;;14.40;13.07;;;;;;;;;;5041792;28;20036;-71
2022/07/04 04:02:55;;;;;;;16.35;14.75;;;;;;;;;;5042817;28;20041;-69
2022/07/04 04:05:26;;;;;;;16.10;14.60;;;;;;;;;;5031241;28;20033;-69
2022/07/04 04:07:53;;;;;;;14.88;13.38;;;;;;;;;;5030080;28;20052;-68
2022/07/04 04:10:18;;;;;;;15.15;13.55;;;;;;;;;;5041947;28;20028;-69
2022/07/04 04:12:43;;;;;;;15.90;14.45;;;;;;;;;;5041954;28;20033;-69
2022/07/04 04:15:09;;;;;;;26.95;15.00;;;;;;;;;;5034914;28;20040;-69
2022/07/04 04:17:34;;;;;;;16.55;15.05;;;;;;;;;;5029095;28;20420;-68
2022/07/04 04:20:00;;;;;;;15.07;13.50;;;;;;;;;;5028518;28;20580;-70
2022/07/04 04:22:27;;;;;;;16.17;14.52;;;;;;;;;;5029753;28;20078;-70
2022/07/04 04:24:52;;;;;;;15.75;14.10;;;;;;;;;;5028520;28;20029;-69
2022/07/04 04:27:17;;;;;;;15.90;14.10;;;;;;;;;;5013135;28;20039;-70
2022/07/04 04:29:43;;;;;;;16.20;14.57;;;;;;;;;;5028086;28;20025;-69
2022/07/04 04:32:08;;;;;;;14.07;12.88;;;;;;;;;;5022764;28;20029;-69
2022/07/04 04:34:34;;;;;;;15.82;13.98;;;;;;;;;;5039802;28;20103;-69
2022/07/04 04:36:59;;;;;;;16.00;14.35;;;;;;;;;;5042116;28;20059;-71
2022/07/04 04:39:25;;;;;;;16.35;14.75;;;;;;;;;;5026764;28;20044;-72
2022/07/04 04:41:50;;;;;;;15.82;14.23;;;;;;;;;;5040123;28;20120;-72
2022/07/04 04:44:15;;;;;;;17.00;14.13;;;;;;;;;;5040136;28;20033;-72
2022/07/04 04:46:41;;;;;;;16.40;14.75;;;;;;;;;;5041915;28;20037;-73
2022/07/04 04:49:06;;;;;;;14.80;13.38;;;;;;;;;;5040702;28;20074;-73
2022/07/04 04:51:32;;;;;;;15.05;13.60;;;;;;;;;;5026200;28;20119;-73
2022/07/04 04:53:57;;;;;;;14.13;12.80;;;;;;;;;;5039946;28;20075;-72
2022/07/04 04:56:23;;;;;;;16.45;14.90;;;;;;;;;;5039371;28;20035;-72
2022/07/04 04:58:48;;;;;;;16.45;14.45;;;;;;;;;;5040857;28;20025;-71
2022/07/04 05:01:13;;;;;;;14.15;12.95;;;;;;;;;;5040561;28;20037;-72
2022/07/04 05:03:38;;;;;;;15.20;13.80;;;;;;;;;;5041555;28;20037;-71
2022/07/04 05:06:04;;;;;;;15.27;13.75;;;;;;;;;;5041209;28;20032;-70
2022/07/04 05:08:29;;;;;;;14.55;13.05;;;;;;;;;;5038909;28;20098;-71
2022/07/04 05:10:55;;;;;;;13.90;12.60;;;;;;;;;;5040448;28;20039;-72
2022/07/04 05:13:20;;;;;;;13.93;12.63;;;;;;;;;;5040411;28;20367;-72
2022/07/04 05:15:46;;;;;;;14.88;13.38;;;;;;;;;;5039805;28;20025;-71
2022/07/04 05:18:11;;;;;;;14.25;12.55;;;;;;;;;;5040489;28;20082;-71
2022/07/04 05:20:37;;;;;;;14.70;13.48;;;;;;;;;;5040340;28;20041;-71
2022/07/04 05:23:02;;;;;;;12.25;11.15;;;;;;;;;;5040958;28;20950;-71
2022/07/04 05:25:27;;;;;;;12.80;11.60;;;;;;;;;;5041439;28;20021;-73
2022/07/04 05:27:53;;;;;;;14.15;12.65;;;;;;;;;;5041587;28;20135;-72
2022/07/04 05:30:18;;;;;;;11.70;10.70;;;;;;;;;;5041022;28;20103;-71
2022/07/04 05:32:43;;;;;;;12.73;11.50;;;;;;;;;;5041355;28;20033;-70
2022/07/04 05:35:09;;;;;;;12.73;11.48;;;;;;;;;;5033083;28;20450;-71
2022/07/04 05:37:35;;;;;;;12.52;11.43;;;;;;;;;;5028450;28;20028;-71
2022/07/04 05:40:01;;;;;;;11.73;10.63;;;;;;;;;;5027961;28;20056;-71
2022/07/04 05:42:26;;;;;;;12.93;11.57;;;;;;;;;;5032964;28;20017;-71
2022/07/04 05:44:52;;;;;;;11.60;10.52;;;;;;;;;;5034028;28;20028;-70
2022/07/04 05:47:17;;;;;;;11.27;10.23;;;;;;;;;;5029040;28;20029;-71
2022/07/04 05:49:42;;;;;;;12.15;10.32;;;;;;;;;;5031208;28;20107;-72
2022/07/04 05:52:08;;;;;;;13.48;11.73;;;;;;;;;;5037947;28;20053;-72
2022/07/04 05:54:34;;;;;;;13.20;10.77;;;;;;;;;;5021541;28;20131;-71
2022/07/04 05:56:59;;;;;;;14.30;10.27;;;;;;;;;;5035229;28;20087;-70
2022/07/04 05:59:24;;;;;;;11.38;10.27;;;;;;;;;;5035172;28;20478;-71
2022/07/04 06:01:50;;;;;;;17.95;10.05;;;;;;;;;;5040649;28;20025;-71
2022/07/04 06:04:15;;;;;;;10.73;9.75;;;;;;;;;;5038424;28;20037;-71
2022/07/04 06:06:41;;;;;;;10.75;9.77;;;;;;;;;;5039950;28;20048;-71
2022/07/04 06:09:06;;;;;;;10.48;9.52;;;;;;;;;;5039056;28;20029;-70
2022/07/04 06:11:32;;;;;;;8.95;7.72;;;;;;;;;;5040246;28;20033;-71
2022/07/04 06:13:58;;;;;;;8.95;8.02;;;;;;;;;;5039051;28;20440;-71
2022/07/04 06:16:23;;;;;;;9.88;7.15;;;;;;;;;;5029135;28;20428;-71
2022/07/04 06:18:48;;;;;;;9.20;6.90;;;;;;;;;;5039546;28;20029;-71
2022/07/04 06:21:14;;;;;;;7.93;6.53;;;;;;;;;;5040254;28;20032;-71
2022/07/04 06:23:39;;;;;;;8.30;6.95;;;;;;;;;;5039448;28;20471;-71
2022/07/04 06:26:04;;;;;;;7.28;6.68;;;;;;;;;;5039859;28;20021;-71
2022/07/04 06:28:30;;;;;;;7.28;6.57;;;;;;;;;;5040237;28;20025;-71
2022/07/04 06:30:56;;;;;;;9.35;7.53;;;;;;;;;;5039130;28;20041;-71
2022/07/04 06:33:21;;;;;;;8.75;8.05;;;;;;;;;;5029238;28;20437;-71
2022/07/04 06:35:54;;;;;;;7.93;7.13;;;;;;;;;;5028074;28;20028;-71
2022/07/04 06:38:20;;;;;;;8.57;6.93;;;;;;;;;;5027976;28;20337;-71
2022/07/04 06:40:46;;;;;;;9.82;6.55;;;;;;;;;;5027720;28;20036;-71
2022/07/04 06:43:11;;;;;;;7.80;6.40;;;;;;;;;;5028102;28;20032;-72
2022/07/04 06:45:37;;;;;;;7.13;6.07;;;;;;;;;;5027737;28;20029;-71
2022/07/04 06:48:03;;;;;;;7.03;6.35;;;;;;;;;;5027083;28;20032;-72
2022/07/04 06:50:32;;;;;;;7.78;5.70;;;;;;;;;;5026344;28;20021;-71
2022/07/04 06:52:57;;;;;;;7.45;6.03;;;;;;;;;;5027077;28;20633;-70
2022/07/04 06:55:23;;;;;;;9.68;6.40;;;;;;;;;;5027584;28;20095;-71
2022/07/04 06:57:48;;;;;;;6.82;5.97;;;;;;;;;;5027631;28;20031;-72
2022/07/04 07:00:14;;;;;;;7.60;6.43;;;;;;;;;;5027356;28;20074;-71
2022/07/04 07:02:39;;;;;;;7.05;6.10;;;;;;;;;;5027570;28;20058;-72
2022/07/04 07:05:05;;;;;;;9.30;6.40;;;;;;;;;;5026888;28;20488;-71
2022/07/04 07:07:30;;;;;;;6.60;6.00;;;;;;;;;;5027870;28;20515;-73
2022/07/04 07:09:55;;;;;;;7.50;6.47;;;;;;;;;;5039280;28;20474;-72
2022/07/04 07:12:21;;;;;;;8.80;7.25;;;;;;;;;;5039249;28;20043;-71
2022/07/04 07:14:47;;;;;;;7.45;6.72;;;;;;;;;;5032794;28;20125;-73
2022/07/04 07:17:12;;;;;;;7.97;6.72;;;;;;;;;;5041353;28;20158;-72
2022/07/04 07:19:38;;;;;;;7.40;6.80;;;;;;;;;;5035863;28;20091;-72
2022/07/04 07:22:03;;;;;;;7.32;6.75;;;;;;;;;;5030776;28;20368;-72
2022/07/04 07:24:32;;;;;;;7.25;6.65;;;;;;;;;;5037067;28;20375;-72
2022/07/04 07:26:57;;;;;;;11.63;7.00;;;;;;;;;;5030243;28;20024;-72
2022/07/04 07:29:22;;;;;;;7.60;6.80;;;;;;;;;;5030931;28;20020;-72
2022/07/04 07:31:48;;;;;;;7.38;6.60;;;;;;;;;;5041370;28;20571;-72
2022/07/04 07:34:13;;;;;;;7.70;6.95;;;;;;;;;;5041116;28;20464;-71
2022/07/04 07:36:38;;;;;;;9.10;7.10;;;;;;;;;;5039237;28;20403;-72
2022/07/04 07:39:04;;;;;;;8.10;7.10;;;;;;;;;;5041310;28;20021;-71
2022/07/04 07:41:29;;;;;;;9.73;6.70;;;;;;;;;;5040431;28;20028;-71
2022/07/04 07:43:55;;;;;;;7.70;7.00;;;;;;;;;;5042550;28;20033;-71
2022/07/04 07:46:20;;;;;;;6.70;6.07;;;;;;;;;;5041941;28;20048;-71
2022/07/04 07:48:46;;;;;;;8.07;6.05;;;;;;;;;;5042929;28;20420;-71
2022/07/04 07:51:11;;;;;;;8.25;6.55;;;;;;;;;;5040966;28;20028;-71
2022/07/04 07:53:36;;;;;;;8.82;6.35;;;;;;;;;;5042591;28;20039;-71
2022/07/04 07:56:02;;;;;;;6.20;5.70;;;;;;;;;;5041242;28;20032;-71
2022/07/04 07:58:27;;;;;;;10.07;6.50;;;;;;;;;;5041838;28;20032;-71
2022/07/04 08:00:53;;;;;;;7.13;6.43;;;;;;;;;;5042562;28;20478;-71
2022/07/04 08:06:02;;;;;;;6.70;6.00;;;;;;;;;;5042577;28;20451;-71
2022/07/04 08:08:28;;;;;;;7.60;6.10;;;;;;;;;;5042766;28;20029;-71
2022/07/04 08:10:53;;;;;;;7.50;6.80;;;;;;;;;;5043050;28;20031;-72
2022/07/04 08:13:18;;;;;;;9.30;7.10;;;;;;;;;;5043868;28;20059;-71
2022/07/04 08:15:44;;;;;;;8.82;8.02;;;;;;;;;;5043494;28;20379;-71
2022/07/04 08:18:09;;;;;;;9.88;8.88;;;;;;;;;;5043672;28;20103;-71
2022/07/04 08:20:34;;;;;;;10.05;8.98;;;;;;;;;;5042166;28;20027;-71
2022/07/04 08:23:00;;;;;;;14.07;9.85;;;;;;;;;;5043284;28;20087;-71
2022/07/04 08:25:25;;;;;;;8.25;7.53;;;;;;;;;;5043394;28;20434;-71
2022/07/04 08:27:51;;;;;;;8.55;7.32;;;;;;;;;;5041918;28;20032;-71
2022/07/04 08:30:17;;;;;;;9.13;6.97;;;;;;;;;;5042794;28;20028;-72
2022/07/04 08:32:42;;;;;;;7.40;6.55;;;;;;;;;;5043347;28;20029;-72
2022/07/04 08:35:08;;;;;;;7.40;6.57;;;;;;;;;;5043132;28;20025;-71
2022/07/04 08:37:34;;;;;;;7.78;6.97;;;;;;;;;;5042238;28;20025;-71
2022/07/04 08:39:59;;;;;;;6.60;6.00;;;;;;;;;;5043581;28;20499;-72
2022/07/04 08:42:27;;;;;;;6.97;6.28;;;;;;;;;;5042502;28;20911;-71
2022/07/04 08:44:54;;;;;;;6.68;6.07;;;;;;;;;;5043527;28;20040;-71
2022/07/04 08:47:21;;;;;;;8.40;6.38;;;;;;;;;;5043083;28;20029;-72
2022/07/04 08:49:52;;;;;;;7.13;6.53;;;;;;;;;;5042693;28;20109;-71
2022/07/04 08:52:24;;;;;;;7.78;7.07;;;;;;;;;;5042837;28;20158;-71
2022/07/04 09:00:18;;;;;;;7.47;6.70;;;;;;;;;;5041791;28;20051;-71
2022/07/04 09:02:43;;;;;;;6.70;6.10;;;;;;;;;;5042768;28;20669;-71
2022/07/04 09:05:09;;;;;;;6.88;6.13;;;;;;;;;;5043093;28;20645;-71
2022/07/04 09:07:34;;;;;;;7.03;6.35;;;;;;;;;;5042439;28;20032;-71
2022/07/04 09:09:59;;;;;;;8.13;6.60;;;;;;;;;;5040838;28;20032;-72
2022/07/04 09:12:25;;;;;;;7.13;6.40;;;;;;;;;;5042791;28;20029;-71
2022/07/04 09:14:53;;;;;;;8.27;6.25;;;;;;;;;;5042910;28;20056;-71
2022/07/04 09:17:19;;;;;;;7.63;6.93;;;;;;;;;;5040780;28;20424;-71
2022/07/04 09:19:45;;;;;;;7.00;6.40;;;;;;;;;;5042665;28;20024;-72
2022/07/04 09:22:11;;;;;;;7.30;6.75;;;;;;;;;;5043446;28;20035;-72
2022/07/04 09:24:49;;;;;;;11.75;7.13;;;;;;;;;;5042769;28;20372;-71
2022/07/04 09:27:31;;;;;;;11.38;7.00;;;;;;;;;;5042134;28;21063;-71
2022/07/04 09:29:57;;;;;;;7.88;7.10;;;;;;;;;;5040777;28;20029;-72
2022/07/04 09:32:41;;;;;;;13.07;6.93;;;;;;;;;;5042129;28;20870;-72
2022/07/04 09:35:08;;;;;;;6.90;6.10;;;;;;;;;;5041191;28;20025;-71
2022/07/04 09:37:36;;;;;;;6.85;5.90;;;;;;;;;;5041581;28;20079;-71
2022/07/04 09:40:05;;;;;;;12.30;6.10;;;;;;;;;;5041988;28;20013;-71
2022/07/04 09:42:34;;;;;;;7.45;6.07;;;;;;;;;;5041482;28;20087;-71
2022/07/04 09:45:03;;;;;;;6.63;5.93;;;;;;;;;;5040351;28;20071;-72
2022/07/04 09:47:29;;;;;;;6.70;6.10;;;;;;;;;;5041463;28;20017;-71
2022/07/04 09:50:02;;;;;;;8.75;7.15;;;;;;;;;;5042386;28;20029;-71
2022/07/04 09:52:29;;;;;;;7.80;6.97;;;;;;;;;;5041445;28;20057;-72
2022/07/04 09:55:02;;;;;;;6.68;6.03;;;;;;;;;;5041989;28;20151;-71
2022/07/04 09:57:29;;;;;;;8.15;6.78;;;;;;;;;;5040846;28;20554;-71
2022/07/04 09:59:54;;;;;;;9.70;6.40;;;;;;;;;;5041381;28;20021;-71
2022/07/04 10:02:20;;;;;;;7.10;6.35;;;;;;;;;;5040646;28;20036;-71
2022/07/04 10:04:47;;;;;;;9.80;6.38;;;;;;;;;;5040971;28;20036;-71
2022/07/04 10:07:29;;;;;;;10.95;7.00;;;;;;;;;;5041842;28;20047;-72
2022/07/04 10:09:54;;;;;;;10.00;6.93;;;;;;;;;;5041694;28;20043;-72
2022/07/04 10:12:27;;;;;;;8.52;7.35;;;;;;;;;;5040868;28;20029;-72
2022/07/04 10:14:53;;;;;;;7.50;6.78;;;;;;;;;;5041813;28;20025;-72
2022/07/04 10:17:18;;;;;;;8.63;6.50;;;;;;;;;;5029754;28;20070;-72
2022/07/04 10:19:44;;;;;;;7.60;6.75;;;;;;;;;;5040856;28;20033;-72
2022/07/04 10:22:10;;;;;;;7.72;6.80;;;;;;;;;;5041340;28;20119;-71
2022/07/04 10:24:35;;;;;;;7.25;6.63;;;;;;;;;;5041285;28;20064;-71
2022/07/04 10:27:01;;;;;;;8.30;6.85;;;;;;;;;;5041855;28;20494;-72
2022/07/04 10:29:26;;;;;;;9.23;6.65;;;;;;;;;;5041591;28;20387;-72
2022/07/04 10:31:53;;;;;;;7.55;6.95;;;;;;;;;;5042778;28;20040;-71
2022/07/04 10:34:18;;;;;;;7.55;6.68;;;;;;;;;;5041470;28;20025;-72
2022/07/04 10:36:51;;;;;;;8.13;6.68;;;;;;;;;;5041853;28;20458;-73
2022/07/04 10:39:21;;;;;;;7.70;6.82;;;;;;;;;;5041287;28;20435;-72
2022/07/04 10:41:58;;;;;;;7.65;6.30;;;;;;;;;;5030310;28;20328;-71
2022/07/04 10:44:25;;;;;;;9.75;6.70;;;;;;;;;;5025865;28;20516;-71
2022/07/04 10:46:51;;;;;;;7.25;6.65;;;;;;;;;;5028779;28;20021;-72
2022/07/04 10:49:23;;;;;;;7.57;6.72;;;;;;;;;;5041577;28;20029;-71
2022/07/04 10:51:50;;;;;;;7.60;6.80;;;;;;;;;;5041719;28;20056;-72
2022/07/04 10:54:19;;;;;;;7.22;6.53;;;;;;;;;;5034964;28;20020;-72
2022/07/04 10:56:47;;;;;;;10.13;7.03;;;;;;;;;;5035259;28;20060;-73
2022/07/04 10:59:13;;;;;;;;;;;;;;;;;;5042069;28;20368;-72
2022/07/04 11:01:38;;;;;;;9.33;5.83;;;;;;;;;;5041157;28;19920;-73
2022/07/04 11:04:04;;;;;;;7.25;6.63;;;;;;;;;;5041575;28;20388;-71
2022/07/04 11:06:44;;;;;;;9.45;6.80;;;;;;;;;;5042325;28;20021;-73
2022/07/04 11:09:12;;;;;;;7.40;6.43;;;;;;;;;;5041699;28;20028;-72
2022/07/04 11:11:56;;;;;;;9.32;6.78;;;;;;;;;;5039585;28;20025;-73
2022/07/04 11:14:31;;;;;;;7.53;6.78;;;;;;;;;;5036003;28;20029;-72
2022/07/04 11:16:56;;;;;;;7.75;6.60;;;;;;;;;;5033623;28;20025;-72
2022/07/04 11:19:22;;;;;;;7.85;7.15;;;;;;;;;;5027422;28;20422;-72
2022/07/04 11:21:47;;;;;;;38.22;34.22;;;;;;;;;;5030657;28;20387;-72
2022/07/04 11:24:12;;;;;;;9.10;6.50;;;;;;;;;;5040085;28;20024;-72
2022/07/04 11:26:38;;;;;;;9.77;6.30;;;;;;;;;;5041710;28;20057;-73
2022/07/04 11:29:03;;;;;;;8.07;6.28;;;;;;;;;;5041688;28;20032;-72
2022/07/04 11:31:35;;;;;;;7.03;6.35;;;;;;;;;;5040261;28;20075;-73
2022/07/04 11:34:01;;;;;;;7.15;6.40;;;;;;;;;;5027035;28;20491;-73
2022/07/04 11:36:26;;;;;;;8.75;6.13;;;;;;;;;;5029119;28;20116;-73
2022/07/04 11:39:04;;;;;;;7.80;5.75;;;;;;;;;;5025675;28;20060;-72
2022/07/04 11:47:03;;;;;;;7.97;6.30;;;;;;;;;;5026090;28;20055;-72
2022/07/04 11:49:28;;;;;;;8.55;6.15;;;;;;;;;;5030369;28;20116;-72
2022/07/04 11:51:55;;;;;;;6.43;5.82;;;;;;;;;;5039272;28;20746;-71
2022/07/04 11:54:21;;;;;;;6.60;5.97;;;;;;;;;;5039525;28;20083;-71
2022/07/04 11:56:46;;;;;;;8.00;6.25;;;;;;;;;;5039572;28;20360;-71
2022/07/04 11:59:12;;;;;;;6.88;6.28;;;;;;;;;;5040728;28;20052;-71
2022/07/04 12:01:39;;;;;;;6.80;6.20;;;;;;;;;;5039364;28;20036;-72
2022/07/04 12:04:11;;;;;;;10.65;6.55;;;;;;;;;;5044347;28;20037;-72
2022/07/04 12:06:36;;;;;;;7.85;6.97;;;;;;;;;;5043852;28;20432;-70
2022/07/04 12:09:01;;;;;;;8.57;7.32;;;;;;;;;;5030871;28;20024;-74
2022/07/04 12:11:46;;;;;;;10.07;7.13;;;;;;;;;;5043873;28;20032;-72
2022/07/04 12:14:14;;;;;;;7.53;6.82;;;;;;;;;;5043558;28;20490;-73
2022/07/04 12:16:39;;;;;;;10.52;7.03;;;;;;;;;;5040611;28;20028;-75
2022/07/04 12:19:09;;;;;;;7.32;6.70;;;;;;;;;;5041052;28;20029;-75
2022/07/04 12:21:34;;;;;;;7.18;6.47;;;;;;;;;;5041331;28;20384;-72
2022/07/04 12:24:02;;;;;;;11.75;7.18;;;;;;;;;;5030914;28;20040;-75
2022/07/04 12:26:28;;;;;;;8.57;6.95;;;;;;;;;;5043736;28;20033;-75
2022/07/04 12:28:53;;;;;;;8.35;6.47;;;;;;;;;;5042802;28;20087;-73
2022/07/04 12:31:18;;;;;;;7.30;6.53;;;;;;;;;;5042990;28;20838;-76
2022/07/04 12:33:54;;;;;;;9.18;7.28;;;;;;;;;;5043366;28;20640;-76
2022/07/04 12:36:19;;;;;;;7.65;6.85;;;;;;;;;;5043252;28;20032;-73
2022/07/04 12:38:45;;;;;;;7.65;6.85;;;;;;;;;;5043435;28;20025;-73
2022/07/04 12:41:11;;;;;;;8.20;7.40;;;;;;;;;;5042620;28;20028;-73
2022/07/04 12:43:42;;;;;;;9.55;6.68;;;;;;;;;;5033632;28;20445;-71
2022/07/04 12:46:08;;;;;;;13.18;6.97;;;;;;;;;;5036995;28;20448;-74
2022/07/04 12:48:33;;;;;;;10.20;7.65;;;;;;;;;;5026852;28;20063;-73
2022/07/04 12:51:13;;;;;;;11.52;6.90;;;;;;;;;;5029557;28;20098;-70
2022/07/04 12:53:42;;;;;;;7.72;7.00;;;;;;;;;;5023216;28;20171;-73
2022/07/04 12:56:08;;;;;;;7.35;6.60;;;;;;;;;;5027222;28;20032;-71
2022/07/04 12:58:33;;;;;;;7.20;6.32;;;;;;;;;;5028034;28;20025;-73
2022/07/04 13:00:59;;;;;;;8.35;7.45;;;;;;;;;;5028886;28;20029;-71
2022/07/04 13:03:24;;;;;;;14.57;6.50;;;;;;;;;;5029287;28;20040;-73
2022/07/04 13:05:50;;;;;;;7.20;6.50;;;;;;;;;;5004583;28;20033;-74
2022/07/04 13:08:15;;;;;;;7.90;7.10;;;;;;;;;;5028513;28;20028;-74
2022/07/04 13:10:41;;;;;;;10.27;6.57;;;;;;;;;;5030813;28;20021;-73
2022/07/04 13:13:06;;;;;;;7.57;6.88;;;;;;;;;;5040496;28;20039;-72
2022/07/04 13:15:32;;;;;;;9.07;7.38;;;;;;;;;;5029977;28;20033;-72
2022/07/04 13:17:57;;;;;;;13.70;6.97;;;;;;;;;;5031257;28;20033;-74
2022/07/04 13:20:23;;;;;;;7.50;6.65;;;;;;;;;;5038908;28;20383;-74
2022/07/04 13:22:48;;;;;;;8.55;7.22;;;;;;;;;;5028233;28;20060;-73
2022/07/04 13:25:14;;;;;;;7.35;6.60;;;;;;;;;;5026650;28;20033;-73
2022/07/04 13:27:39;;;;;;;8.05;6.05;;;;;;;;;;5039668;28;20032;-74
2022/07/04 13:30:05;;;;;;;13.57;6.65;;;;;;;;;;5028064;28;20057;-73
2022/07/04 13:32:30;;;;;;;8.95;6.88;;;;;;;;;;5040050;28;20024;-71
2022/07/04 13:34:56;;;;;;;11.55;8.07;;;;;;;;;;5040736;28;20427;-72
2022/07/04 13:37:21;;;;;;;7.68;6.57;;;;;;;;;;5041582;28;20021;-71
2022/07/04 13:39:46;;;;;;;8.85;6.65;;;;;;;;;;5041121;28;20025;-75
2022/07/04 13:42:12;;;;;;;8.48;6.82;;;;;;;;;;5042632;28;20028;-72
2022/07/04 13:44:37;;;;;;;7.32;6.70;;;;;;;;;;5027790;28;20048;-74
2022/07/04 13:47:03;;;;;;;7.88;6.57;;;;;;;;;;5028818;28;20044;-71
2022/07/04 13:49:28;;;;;;;7.95;6.68;;;;;;;;;;5028249;28;20372;-74
2022/07/04 13:51:53;;;;;;;9.50;6.72;;;;;;;;;;5028464;28;20136;-73
2022/07/04 13:54:19;;;;;;;8.73;6.43;;;;;;;;;;5035469;28;20492;-75
2022/07/04 13:56:45;;;;;;;14.15;6.57;;;;;;;;;;5042313;28;20029;-74
2022/07/04 13:59:10;;;;;;;7.13;6.43;;;;;;;;;;5042401;28;20017;-74
2022/07/04 14:01:36;;;;;;;7.20;6.50;;;;;;;;;;5042193;28;20436;-73
2022/07/04 14:04:01;;;;;;;7.28;6.43;;;;;;;;;;5037742;28;20083;-74
2022/07/04 14:06:27;;;;;;;6.40;5.70;;;;;;;;;;5027448;28;20048;-74
2022/07/04 14:08:52;;;;;;;7.30;6.65;;;;;;;;;;5043301;28;20030;-73
2022/07/04 14:11:18;;;;;;;7.97;6.22;;;;;;;;;;5036122;28;20448;-74
2022/07/04 14:13:43;;;;;;;11.77;6.88;;;;;;;;;;5011143;28;20029;-78
2022/07/04 14:16:08;;;;;;;11.05;6.93;;;;;;;;;;5041188;28;20301;-73
2022/07/04 14:18:34;;;;;;;11.50;6.93;;;;;;;;;;5042590;28;20017;-75
2022/07/04 14:20:59;;;;;;;7.07;6.38;;;;;;;;;;5042030;28;20033;-73
2022/07/04 14:23:44;;;;;;;7.43;6.70;;;;;;;;;;5042229;28;20440;-73
2022/07/04 14:26:10;;;;;;;7.63;6.10;;;;;;;;;;5041037;28;20021;-73
2022/07/04 14:28:37;;;;;;;8.85;6.60;;;;;;;;;;5038130;28;20024;-72
2022/07/04 14:31:02;;;;;;;9.48;6.57;;;;;;;;;;5040368;28;20095;-73
2022/07/04 14:33:28;;;;;;;8.15;6.07;;;;;;;;;;5040802;28;20440;-74
2022/07/04 14:35:53;;;;;;;9.35;7.05;;;;;;;;;;5040410;28;20029;-73
2022/07/04 14:38:19;;;;;;;8.35;6.82;;;;;;;;;;5030547;28;20170;-72
2022/07/04 14:40:46;;;;;;;7.50;6.65;;;;;;;;;;5041774;28;20424;-74
2022/07/04 14:43:11;;;;;;;7.03;6.32;;;;;;;;;;5035399;28;20029;-73
2022/07/04 14:45:37;;;;;;;8.02;6.95;;;;;;;;;;5035891;28;20032;-74